Sandra Hugh — WDD9019 — position and weather

sailwx.info

Track history (hours):
 
Tides and Currents Weather Stations Pressure Air Temp Water Temp Dewpoint Dewpoint Depression Visibility Wind Speed Wind Dir Waves Ship Positions

Sandra Hugh

Owner: Sortwell Inc., DBA AmNav Maritime Services, Oakland, CA. More information available from US FCC via Universal Licensing System and Coast Guard Vessel Documentation Center.

Last reported at 2016-May-04 08:30 UTC. Time now 2016-May-04 15:28 UTC.
Position N 38°02' W 122°08'.

Length 24 m; draft 4.9 m.

Type: Tug. MMSI: 367305920.

Date/timePositionNaut miles runAvg speedWind from/ knotsBaromVisibWave heightAir tempDewpointWater temp
2016-May-04 08:30N 38°02' W 122°08'0 0.0
2016-May-04 07:19N 38°02' W 122°08'0 0.0
2016-May-04 06:29N 38°02' W 122°08'0 0.0
2016-May-04 05:33N 38°02' W 122°08'2 1.7
2016-May-04 04:33N 38°03' W 122°06'0 0.2
2016-May-04 03:32N 38°03' W 122°06'6 6.5
2016-May-04 02:33N 38°04' W 122°14'9 8.8
2016-May-04 01:33N 38°00' W 122°25'9 8.8
2016-May-04 00:33N 37°52' W 122°25'6 5.5
2016-May-03 23:33N 37°48' W 122°30'2 1.5
2016-May-03 22:33N 37°49' W 122°29'8 7.9
2016-May-03 21:33N 37°49' W 122°19'0 0.0
2016-May-03 20:33N 37°49' W 122°19'0 0.0
2016-May-03 19:33N 37°49' W 122°19'0 0.0
2016-May-03 18:33N 37°49' W 122°19'0 0.0
2016-May-03 17:33N 37°49' W 122°19'0 0.0
2016-May-03 16:33N 37°49' W 122°19'0 0.0
2016-May-03 15:33N 37°49' W 122°19'5 5.4
2016-May-03 14:33N 37°45' W 122°22'1 1.4
2016-May-03 13:33N 37°44' W 122°21'3 3.0
2016-May-03 12:33N 37°47' W 122°21'3 3.1
2016-May-03 11:33N 37°49' W 122°19'0 0.0
2016-May-03 10:33N 37°49' W 122°19'0 0.0
2016-May-03 09:33N 37°49' W 122°19'0 0.0
2016-May-03 08:33N 37°49' W 122°19'0 0.0
2016-May-03 07:33N 37°49' W 122°19'6 5.5
2016-May-03 06:33N 37°53' W 122°24'3 3.0
2016-May-03 05:33N 37°55' W 122°22'0 0.1
2016-May-03 04:33N 37°55' W 122°22'6 5.9
2016-May-03 03:30N 38°01' W 122°23'9 8.9
2016-May-03 02:33N 38°04' W 122°13'4 3.3
2016-May-03 01:19N 38°03' W 122°08'0 0.0
2016-May-02 02:11N 38°02' W 122°08'4 6.1
2016-May-02 01:33N 38°03' W 122°13'2 2.2
2016-May-02 00:31N 38°04' W 122°16'6 0.2
2016-Apr-30 11:31N 38°02' W 122°08'0 0.0
2016-Apr-30 02:19N 38°02' W 122°08'810.0
2016-Apr-30 01:33N 38°03' W 122°18'10 9.4
2016-Apr-30 00:31N 37°55' W 122°25'3 2.8
2016-Apr-29 23:33N 37°55' W 122°22'3 2.6
2016-Apr-29 22:33N 37°55' W 122°25'2 2.4
2016-Apr-29 21:33N 37°53' W 122°25'6 0.3
2016-Apr-28 23:33N 37°49' W 122°19'2 1.6
2016-Apr-28 22:33N 37°48' W 122°19'2 1.6
2016-Apr-28 21:33N 37°49' W 122°19'0 0.0
2016-Apr-28 20:33N 37°49' W 122°19'0 0.0
2016-Apr-28 19:33N 37°49' W 122°19'0 0.0
2016-Apr-28 18:33N 37°49' W 122°19'0 0.0
2016-Apr-28 17:33N 37°49' W 122°19'0 0.0
2016-Apr-28 16:33N 37°49' W 122°19'0 0.0
2016-Apr-28 15:33N 37°49' W 122°19'0 0.0
2016-Apr-28 14:33N 37°49' W 122°19'0 0.0
2016-Apr-28 13:33N 37°49' W 122°19'0 0.0
2016-Apr-28 12:33N 37°49' W 122°19'0 0.0
2016-Apr-28 11:33N 37°49' W 122°19'0 0.0
2016-Apr-28 10:33N 37°49' W 122°19'0 0.0
2016-Apr-28 09:33N 37°49' W 122°19'0 0.0
2016-Apr-28 08:33N 37°49' W 122°19'0 0.0
2016-Apr-28 07:33N 37°49' W 122°19'0 0.0
2016-Apr-28 06:33N 37°49' W 122°19'0 0.0
2016-Apr-28 05:33N 37°49' W 122°19'0 0.0
2016-Apr-28 04:33N 37°49' W 122°19'2 1.6
2016-Apr-28 03:33N 37°48' W 122°19'3 3.0
2016-Apr-28 02:33N 37°48' W 122°23'2 1.8
2016-Apr-28 01:33N 37°48' W 122°20'1 1.1
2016-Apr-28 00:33N 37°48' W 122°19'1 1.1
2016-Apr-27 23:33N 37°49' W 122°20'1 1.0
2016-Apr-27 22:33N 37°49' W 122°19'0 0.0
2016-Apr-27 21:33N 37°49' W 122°19'0 0.0
2016-Apr-27 20:33N 37°49' W 122°19'5 5.1
2016-Apr-27 19:33N 37°52' W 122°24'11 9.2
2016-Apr-27 18:20N 38°03' W 122°19'4 0.5
2016-Apr-27 10:33N 38°03' W 122°15'0 0.0
2016-Apr-27 09:33N 38°03' W 122°15'11 1.7
2016-Apr-27 03:06N 37°57' W 122°26'4 7.3
2016-Apr-27 02:33N 37°54' W 122°22'1 1.2
2016-Apr-27 01:33N 37°54' W 122°24'0 0.0
2016-Apr-27 00:33N 37°54' W 122°24'1 0.5
2016-Apr-26 23:33N 37°54' W 122°23'1 1.1
2016-Apr-26 22:33N 37°55' W 122°25'0 0.5
2016-Apr-26 21:32N 37°55' W 122°25'1 1.4
2016-Apr-26 20:33N 37°55' W 122°23'0 0.0
2016-Apr-26 19:33N 37°55' W 122°23'1 1.5
2016-Apr-26 18:33N 37°55' W 122°25'10 9.7
2016-Apr-26 17:33N 38°03' W 122°18'9 0.6
2016-Apr-26 02:25N 37°57' W 122°26'3 3.3
2016-Apr-26 01:34N 37°55' W 122°25'1 0.8
2016-Apr-26 00:33N 37°55' W 122°25'4 3.7
2016-Apr-25 23:33N 37°52' W 122°24'3 3.1
2016-Apr-25 22:33N 37°49' W 122°24'0 0.4
2016-Apr-25 21:33N 37°49' W 122°25'5 4.8
2016-Apr-25 20:33N 37°49' W 122°19'0 0.0
2016-Apr-25 19:33N 37°49' W 122°19'0 0.0
2016-Apr-25 18:33N 37°49' W 122°19'0 0.0
2016-Apr-25 17:33N 37°49' W 122°19'0 0.0
2016-Apr-25 16:34N 37°49' W 122°19'0 0.0
2016-Apr-25 15:33N 37°49' W 122°19'0 0.0
2016-Apr-25 14:33N 37°49' W 122°19'0 0.0
2016-Apr-25 13:34N 37°49' W 122°19'0 0.0
2016-Apr-25 12:34N 37°49' W 122°19'0 0.0
2016-Apr-25 11:34N 37°49' W 122°19'0 0.0
2016-Apr-25 10:34N 37°49' W 122°19'0 0.0
2016-Apr-25 09:33N 37°49' W 122°19'0 0.0
2016-Apr-25 08:33N 37°49' W 122°19'0 0.0
2016-Apr-25 07:33N 37°49' W 122°19'0 0.0
2016-Apr-25 06:33N 37°49' W 122°19'0 0.0
2016-Apr-25 05:33N 37°49' W 122°19'0 0.0
2016-Apr-25 04:34N 37°49' W 122°19'0 0.0
2016-Apr-25 03:33N 37°49' W 122°19'0 0.0
2016-Apr-25 02:34N 37°49' W 122°19'0 0.0
2016-Apr-25 01:33N 37°49' W 122°19'0 0.0
2016-Apr-25 00:33N 37°49' W 122°19'0 0.0
2016-Apr-24 23:33N 37°49' W 122°19'0 0.0
2016-Apr-24 22:34N 37°49' W 122°19'0 0.0
2016-Apr-24 21:33N 37°49' W 122°19'0 0.0
2016-Apr-24 20:33N 37°49' W 122°19'0 0.0
2016-Apr-24 19:33N 37°49' W 122°19'0 0.0
2016-Apr-24 18:33N 37°49' W 122°19'0 0.0
2016-Apr-24 17:34N 37°49' W 122°19'0 0.0
2016-Apr-24 16:33N 37°49' W 122°19'0 0.0
2016-Apr-24 15:33N 37°49' W 122°19'0 0.0
2016-Apr-24 14:34N 37°49' W 122°19'2 2.0
2016-Apr-24 13:34N 37°48' W 122°21'7 6.7
2016-Apr-24 12:33N 37°55' W 122°22'1 1.1
2016-Apr-24 11:33N 37°54' W 122°23'2 2.4
2016-Apr-24 10:33N 37°53' W 122°25'2 2.4
2016-Apr-24 09:33N 37°55' W 122°23'2 1.6
2016-Apr-24 08:32N 37°56' W 122°25'  
Track history (hours):
 
Tides and Currents Weather Stations Pressure Air Temp Water Temp Dewpoint Dewpoint Depression Visibility Wind Speed Wind Dir Waves Ship Positions

Sandra Hugh

Owner: Sortwell Inc., DBA AmNav Maritime Services, Oakland, CA. More information available from US FCC via Universal Licensing System and Coast Guard Vessel Documentation Center.

Last reported at 2016-May-04 08:30 UTC. Time now 2016-May-04 15:28 UTC.
Position N 38°02' W 122°08'.

Length 24 m; draft 4.9 m.

Type: Tug. MMSI: 367305920.

Date/timePositionNaut miles runAvg speedWind from/ knotsBaromVisibWave heightAir tempDewpointWater temp
2016-May-04 08:30N 38°02' W 122°08'0 0.0
2016-May-04 07:19N 38°02' W 122°08'0 0.0
2016-May-04 06:29N 38°02' W 122°08'0 0.0
2016-May-04 05:33N 38°02' W 122°08'2 1.7
2016-May-04 04:33N 38°03' W 122°06'0 0.2
2016-May-04 03:32N 38°03' W 122°06'6 6.5
2016-May-04 02:33N 38°04' W 122°14'9 8.8
2016-May-04 01:33N 38°00' W 122°25'9 8.8
2016-May-04 00:33N 37°52' W 122°25'6 5.5
2016-May-03 23:33N 37°48' W 122°30'2 1.5
2016-May-03 22:33N 37°49' W 122°29'8 7.9
2016-May-03 21:33N 37°49' W 122°19'0 0.0
2016-May-03 20:33N 37°49' W 122°19'0 0.0
2016-May-03 19:33N 37°49' W 122°19'0 0.0
2016-May-03 18:33N 37°49' W 122°19'0 0.0
2016-May-03 17:33N 37°49' W 122°19'0 0.0
2016-May-03 16:33N 37°49' W 122°19'0 0.0
2016-May-03 15:33N 37°49' W 122°19'5 5.4
2016-May-03 14:33N 37°45' W 122°22'1 1.4
2016-May-03 13:33N 37°44' W 122°21'3 3.0
2016-May-03 12:33N 37°47' W 122°21'3 3.1
2016-May-03 11:33N 37°49' W 122°19'0 0.0
2016-May-03 10:33N 37°49' W 122°19'0 0.0
2016-May-03 09:33N 37°49' W 122°19'0 0.0
2016-May-03 08:33N 37°49' W 122°19'0 0.0
2016-May-03 07:33N 37°49' W 122°19'6 5.5
2016-May-03 06:33N 37°53' W 122°24'3 3.0
2016-May-03 05:33N 37°55' W 122°22'0 0.1
2016-May-03 04:33N 37°55' W 122°22'6 5.9
2016-May-03 03:30N 38°01' W 122°23'9 8.9
2016-May-03 02:33N 38°04' W 122°13'4 3.3
2016-May-03 01:19N 38°03' W 122°08'0 0.0
2016-May-02 02:11N 38°02' W 122°08'4 6.1
2016-May-02 01:33N 38°03' W 122°13'2 2.2
2016-May-02 00:31N 38°04' W 122°16'6 0.2
2016-Apr-30 11:31N 38°02' W 122°08'0 0.0
2016-Apr-30 02:19N 38°02' W 122°08'810.0
2016-Apr-30 01:33N 38°03' W 122°18'10 9.4
2016-Apr-30 00:31N 37°55' W 122°25'3 2.8
2016-Apr-29 23:33N 37°55' W 122°22'3 2.6
2016-Apr-29 22:33N 37°55' W 122°25'2 2.4
2016-Apr-29 21:33N 37°53' W 122°25'6 0.3
2016-Apr-28 23:33N 37°49' W 122°19'2 1.6
2016-Apr-28 22:33N 37°48' W 122°19'2 1.6
2016-Apr-28 21:33N 37°49' W 122°19'0 0.0
2016-Apr-28 20:33N 37°49' W 122°19'0 0.0
2016-Apr-28 19:33N 37°49' W 122°19'0 0.0
2016-Apr-28 18:33N 37°49' W 122°19'0 0.0
2016-Apr-28 17:33N 37°49' W 122°19'0 0.0
2016-Apr-28 16:33N 37°49' W 122°19'0 0.0
2016-Apr-28 15:33N 37°49' W 122°19'0 0.0
2016-Apr-28 14:33N 37°49' W 122°19'0 0.0
2016-Apr-28 13:33N 37°49' W 122°19'0 0.0
2016-Apr-28 12:33N 37°49' W 122°19'0 0.0
2016-Apr-28 11:33N 37°49' W 122°19'0 0.0
2016-Apr-28 10:33N 37°49' W 122°19'0 0.0
2016-Apr-28 09:33N 37°49' W 122°19'0 0.0
2016-Apr-28 08:33N 37°49' W 122°19'0 0.0
2016-Apr-28 07:33N 37°49' W 122°19'0 0.0
2016-Apr-28 06:33N 37°49' W 122°19'0 0.0
2016-Apr-28 05:33N 37°49' W 122°19'0 0.0
2016-Apr-28 04:33N 37°49' W 122°19'2 1.6
2016-Apr-28 03:33N 37°48' W 122°19'3 3.0
2016-Apr-28 02:33N 37°48' W 122°23'2 1.8
2016-Apr-28 01:33N 37°48' W 122°20'1 1.1
2016-Apr-28 00:33N 37°48' W 122°19'1 1.1
2016-Apr-27 23:33N 37°49' W 122°20'1 1.0
2016-Apr-27 22:33N 37°49' W 122°19'0 0.0
2016-Apr-27 21:33N 37°49' W 122°19'0 0.0
2016-Apr-27 20:33N 37°49' W 122°19'5 5.1
2016-Apr-27 19:33N 37°52' W 122°24'11 9.2
2016-Apr-27 18:20N 38°03' W 122°19'4 0.5
2016-Apr-27 10:33N 38°03' W 122°15'0 0.0
2016-Apr-27 09:33N 38°03' W 122°15'11 1.7
2016-Apr-27 03:06N 37°57' W 122°26'4 7.3
2016-Apr-27 02:33N 37°54' W 122°22'1 1.2
2016-Apr-27 01:33N 37°54' W 122°24'0 0.0
2016-Apr-27 00:33N 37°54' W 122°24'1 0.5
2016-Apr-26 23:33N 37°54' W 122°23'1 1.1
2016-Apr-26 22:33N 37°55' W 122°25'0 0.5
2016-Apr-26 21:32N 37°55' W 122°25'1 1.4
2016-Apr-26 20:33N 37°55' W 122°23'0 0.0
2016-Apr-26 19:33N 37°55' W 122°23'1 1.5
2016-Apr-26 18:33N 37°55' W 122°25'10 9.7
2016-Apr-26 17:33N 38°03' W 122°18'9 0.6
2016-Apr-26 02:25N 37°57' W 122°26'3 3.3
2016-Apr-26 01:34N 37°55' W 122°25'1 0.8
2016-Apr-26 00:33N 37°55' W 122°25'4 3.7
2016-Apr-25 23:33N 37°52' W 122°24'3 3.1
2016-Apr-25 22:33N 37°49' W 122°24'0 0.4
2016-Apr-25 21:33N 37°49' W 122°25'5 4.8
2016-Apr-25 20:33N 37°49' W 122°19'0 0.0
2016-Apr-25 19:33N 37°49' W 122°19'0 0.0
2016-Apr-25 18:33N 37°49' W 122°19'0 0.0
2016-Apr-25 17:33N 37°49' W 122°19'0 0.0
2016-Apr-25 16:34N 37°49' W 122°19'0 0.0
2016-Apr-25 15:33N 37°49' W 122°19'0 0.0
2016-Apr-25 14:33N 37°49' W 122°19'0 0.0
2016-Apr-25 13:34N 37°49' W 122°19'0 0.0
2016-Apr-25 12:34N 37°49' W 122°19'0 0.0
2016-Apr-25 11:34N 37°49' W 122°19'0 0.0
2016-Apr-25 10:34N 37°49' W 122°19'0 0.0
2016-Apr-25 09:33N 37°49' W 122°19'0 0.0
2016-Apr-25 08:33N 37°49' W 122°19'0 0.0
2016-Apr-25 07:33N 37°49' W 122°19'0 0.0
2016-Apr-25 06:33N 37°49' W 122°19'0 0.0
2016-Apr-25 05:33N 37°49' W 122°19'0 0.0
2016-Apr-25 04:34N 37°49' W 122°19'0 0.0
2016-Apr-25 03:33N 37°49' W 122°19'0 0.0
2016-Apr-25 02:34N 37°49' W 122°19'0 0.0
2016-Apr-25 01:33N 37°49' W 122°19'0 0.0
2016-Apr-25 00:33N 37°49' W 122°19'0 0.0
2016-Apr-24 23:33N 37°49' W 122°19'0 0.0
2016-Apr-24 22:34N 37°49' W 122°19'0 0.0
2016-Apr-24 21:33N 37°49' W 122°19'0 0.0
2016-Apr-24 20:33N 37°49' W 122°19'0 0.0
2016-Apr-24 19:33N 37°49' W 122°19'0 0.0
2016-Apr-24 18:33N 37°49' W 122°19'0 0.0
2016-Apr-24 17:34N 37°49' W 122°19'0 0.0
2016-Apr-24 16:33N 37°49' W 122°19'0 0.0
2016-Apr-24 15:33N 37°49' W 122°19'0 0.0
2016-Apr-24 14:34N 37°49' W 122°19'2 2.0
2016-Apr-24 13:34N 37°48' W 122°21'7 6.7
2016-Apr-24 12:33N 37°55' W 122°22'1 1.1
2016-Apr-24 11:33N 37°54' W 122°23'2 2.4
2016-Apr-24 10:33N 37°53' W 122°25'2 2.4
2016-Apr-24 09:33N 37°55' W 122°23'2 1.6
2016-Apr-24 08:32N 37°56' W 122°25'  

Dump ship's entire track history